createdAt,value
2023-02-14T00:00:27.963Z,9.30
2023-02-14T00:02:54.595Z,9.00
2023-02-14T00:05:21.014Z,9.05
2023-02-14T00:07:47.434Z,9.05
2023-02-14T00:10:13.809Z,8.20
2023-02-14T00:12:40.162Z,9.13
2023-02-14T00:15:25.395Z,8.40
2023-02-14T00:17:56.857Z,8.40
2023-02-14T00:20:23.767Z,9.00
2023-02-14T00:22:50.713Z,9.23
2023-02-14T00:25:17.154Z,8.75
2023-02-14T00:27:43.556Z,8.73
2023-02-14T00:30:11.812Z,8.73
2023-02-14T00:32:39.696Z,9.05
2023-02-14T00:35:07.573Z,8.93
2023-02-14T00:37:34.569Z,9.05
2023-02-14T00:40:01.010Z,8.20
2023-02-14T00:42:27.496Z,8.95
2023-02-14T00:44:53.878Z,8.32
2023-02-14T00:47:20.239Z,8.70
2023-02-14T00:49:46.598Z,8.45
2023-02-14T00:52:13.001Z,9.00
2023-02-14T00:54:39.497Z,8.40
2023-02-14T00:57:05.830Z,8.65
2023-02-14T00:59:32.219Z,9.00
2023-02-14T01:01:58.596Z,8.77
2023-02-14T01:04:24.958Z,8.93
2023-02-14T01:06:51.308Z,9.07
2023-02-14T01:09:17.711Z,8.70
2023-02-14T01:11:44.141Z,9.38
2023-02-14T01:14:10.545Z,9.60
2023-02-14T01:16:38.342Z,9.27
2023-02-14T01:19:04.736Z,9.85
2023-02-14T01:21:33.296Z,10.07
2023-02-14T01:24:04.194Z,9.30
2023-02-14T01:26:31.407Z,9.50
2023-02-14T01:28:58.196Z,10.10
2023-02-14T01:31:30.065Z,9.63
2023-02-14T01:33:57.532Z,9.52
2023-02-14T01:36:26.852Z,9.93
2023-02-14T01:38:57.180Z,9.60
2023-02-14T01:41:25.511Z,9.60
2023-02-14T01:43:56.403Z,10.32
2023-02-14T01:46:23.313Z,9.93
2023-02-14T01:48:50.992Z,10.07
2023-02-14T01:51:19.863Z,9.32
2023-02-14T01:53:47.271Z,9.20
2023-02-14T01:56:18.910Z,9.80
2023-02-14T01:58:48.117Z,9.35
2023-02-14T02:01:17.693Z,8.85
2023-02-14T02:03:48.980Z,9.15
2023-02-14T02:06:19.863Z,9.70
2023-02-14T02:08:57.425Z,9.90
2023-02-14T02:11:23.834Z,10.18
2023-02-14T02:13:50.175Z,11.77
2023-02-14T02:16:31.331Z,16.20
2023-02-14T02:19:19.492Z,19.13
2023-02-14T02:22:09.230Z,17.65
2023-02-14T02:24:52.311Z,15.25
2023-02-14T02:27:45.594Z,14.07
2023-02-14T02:30:34.228Z,13.18
2023-02-14T02:33:12.697Z,13.90
2023-02-14T02:35:45.183Z,14.15
2023-02-14T02:38:33.364Z,14.00
2023-02-14T02:41:09.599Z,11.88
2023-02-14T02:44:13.135Z,11.70
2023-02-14T02:46:49.610Z,11.03
2023-02-14T02:50:01.959Z,12.85
2023-02-14T02:53:03.414Z,11.85
2023-02-14T02:56:09.184Z,13.40
2023-02-14T02:58:40.904Z,12.05
2023-02-14T03:01:11.926Z,13.70
2023-02-14T03:03:59.979Z,12.85
2023-02-14T03:06:26.414Z,13.02
2023-02-14T03:08:52.769Z,12.13
2023-02-14T03:11:19.411Z,12.65
2023-02-14T03:14:07.470Z,11.37
2023-02-14T03:17:32.945Z,11.02
2023-02-14T03:20:20.883Z,10.55
2023-02-14T03:23:04.026Z,11.80
2023-02-14T03:25:38.946Z,11.35
2023-02-14T03:28:17.073Z,12.57
2023-02-14T03:30:47.176Z,11.93
2023-02-14T03:33:32.888Z,13.20
2023-02-14T03:36:09.520Z,13.13
2023-02-14T03:38:51.584Z,13.32
2023-02-14T03:41:23.020Z,12.93
2023-02-14T03:43:57.293Z,12.75
2023-02-14T03:46:42.008Z,12.00
2023-02-14T03:49:17.480Z,13.00
2023-02-14T03:51:47.673Z,11.90
2023-02-14T03:54:17.222Z,11.13
2023-02-14T03:56:51.877Z,12.45
2023-02-14T03:59:21.935Z,11.30
2023-02-14T04:01:56.669Z,12.20
2023-02-14T04:04:27.336Z,11.85
2023-02-14T04:06:53.862Z,12.13
2023-02-14T04:09:20.238Z,13.18
2023-02-14T04:11:50.251Z,11.88
2023-02-14T04:14:17.677Z,12.25
2023-02-14T04:17:02.618Z,12.50
2023-02-14T04:19:29.020Z,12.07
2023-02-14T04:21:55.384Z,12.35
2023-02-14T04:24:21.761Z,11.60
2023-02-14T04:27:06.418Z,12.10
2023-02-14T04:29:32.749Z,11.48
2023-02-14T04:31:59.177Z,11.43
2023-02-14T04:34:25.747Z,11.98
2023-02-14T04:36:52.096Z,12.45
2023-02-14T04:39:18.466Z,12.68
2023-02-14T04:41:44.806Z,12.00
2023-02-14T04:44:11.164Z,12.03
2023-02-14T04:46:37.690Z,11.82
2023-02-14T04:49:04.068Z,11.93
2023-02-14T04:51:30.425Z,12.93
2023-02-14T04:53:56.788Z,12.70
2023-02-14T04:56:23.145Z,13.03
2023-02-14T04:58:49.507Z,13.27
2023-02-14T05:01:15.904Z,12.02
2023-02-14T05:03:42.296Z,13.02
2023-02-14T05:06:08.728Z,12.23
2023-02-14T05:08:35.083Z,13.40
2023-02-14T05:11:01.767Z,12.57
2023-02-14T05:13:28.565Z,12.73
2023-02-14T05:15:55.351Z,12.68
2023-02-14T05:18:21.736Z,13.50
2023-02-14T05:20:54.739Z,13.30
2023-02-14T05:23:22.254Z,13.13
2023-02-14T05:25:49.779Z,12.93
2023-02-14T05:28:16.770Z,13.95
2023-02-14T05:30:43.234Z,13.77
2023-02-14T05:33:09.654Z,14.47
2023-02-14T05:35:36.276Z,14.52
2023-02-14T05:38:02.823Z,14.95
2023-02-14T05:40:29.298Z,14.18
2023-02-14T05:42:55.936Z,14.20
2023-02-14T05:45:23.166Z,13.17
2023-02-14T05:47:50.032Z,13.93
2023-02-14T05:50:17.642Z,14.77
2023-02-14T05:52:44.195Z,13.07
2023-02-14T05:55:10.774Z,12.73
2023-02-14T05:57:37.334Z,12.73
2023-02-14T06:00:06.486Z,12.05
2023-02-14T06:02:33.199Z,11.40
2023-02-14T06:04:59.627Z,12.40
2023-02-14T06:07:26.009Z,12.25
2023-02-14T06:09:52.395Z,11.23
2023-02-14T06:12:18.757Z,12.88
2023-02-14T06:14:45.215Z,12.75
2023-02-14T06:17:11.911Z,12.48
2023-02-14T06:19:38.298Z,11.30
2023-02-14T06:22:04.772Z,12.20
2023-02-14T06:24:31.136Z,10.43
2023-02-14T06:26:59.148Z,11.02
2023-02-14T06:29:25.682Z,10.50
2023-02-14T06:31:52.202Z,10.80
2023-02-14T06:34:18.727Z,10.83
2023-02-14T06:36:45.080Z,10.77
2023-02-14T06:39:11.534Z,11.77
2023-02-14T06:41:37.985Z,11.23
2023-02-14T06:44:04.548Z,12.15
2023-02-14T06:46:31.010Z,11.43
2023-02-14T06:48:57.386Z,10.77
2023-02-14T06:51:23.733Z,11.05
2023-02-14T06:53:50.077Z,10.90
2023-02-14T06:56:16.473Z,11.23
2023-02-14T06:58:42.855Z,10.43
2023-02-14T07:01:09.323Z,11.27
2023-02-14T07:03:35.699Z,11.27
2023-02-14T07:06:02.135Z,11.35
2023-02-14T07:08:28.575Z,10.50
2023-02-14T07:10:58.730Z,10.50
2023-02-14T07:13:25.691Z,10.18
2023-02-14T07:15:52.122Z,10.13
2023-02-14T07:18:18.543Z,11.93
2023-02-14T07:20:45.502Z,9.75
2023-02-14T07:23:11.905Z,9.27
2023-02-14T07:25:38.453Z,11.07
2023-02-14T07:28:04.935Z,10.07
2023-02-14T07:30:31.424Z,10.23
2023-02-14T07:32:58.268Z,10.65
2023-02-14T07:35:24.872Z,10.80
2023-02-14T07:37:51.594Z,11.18
2023-02-14T07:40:18.465Z,9.25
2023-02-14T07:42:44.819Z,11.75
2023-02-14T07:45:21.121Z,10.98
2023-02-14T07:47:52.688Z,11.27
2023-02-14T07:50:20.348Z,11.45
2023-02-14T07:52:47.237Z,10.63
2023-02-14T07:55:14.172Z,10.50
2023-02-14T07:57:40.538Z,14.02
2023-02-14T08:00:08.062Z,10.63
2023-02-14T08:02:35.664Z,14.88
2023-02-14T08:05:02.069Z,14.82
2023-02-14T08:07:28.472Z,13.73
2023-02-14T08:09:54.828Z,14.20
2023-02-14T08:12:39.672Z,15.83
2023-02-14T08:15:24.954Z,13.15
2023-02-14T08:17:51.318Z,15.90
2023-02-14T08:20:17.796Z,12.35
2023-02-14T08:22:44.189Z,15.93
2023-02-14T08:25:10.529Z,13.23
2023-02-14T08:27:36.887Z,17.00
2023-02-14T08:30:03.517Z,13.10
2023-02-14T08:32:30.020Z,13.02
2023-02-14T08:34:56.461Z,16.25
2023-02-14T08:37:22.834Z,14.43
2023-02-14T08:39:49.335Z,12.75
2023-02-14T08:42:15.715Z,13.25
2023-02-14T08:44:42.095Z,13.35
2023-02-14T08:47:08.550Z,12.32
2023-02-14T08:49:34.971Z,12.50
2023-02-14T08:52:01.398Z,15.20
2023-02-14T08:54:27.776Z,12.38
2023-02-14T08:56:54.156Z,12.70
2023-02-14T08:59:20.544Z,11.18
2023-02-14T09:01:46.918Z,11.37
2023-02-14T09:04:13.442Z,11.93
2023-02-14T09:06:40.002Z,15.07
2023-02-14T09:09:07.201Z,12.43
2023-02-14T09:11:34.679Z,12.05
2023-02-14T09:14:01.198Z,12.50
2023-02-14T09:16:27.695Z,12.25
2023-02-14T09:18:54.723Z,12.93
2023-02-14T09:21:23.977Z,11.68
2023-02-14T09:23:50.639Z,11.75
2023-02-14T09:26:17.624Z,15.00
2023-02-14T09:28:44.743Z,11.82
2023-02-14T09:31:20.471Z,10.30
2023-02-14T09:33:48.117Z,11.75
2023-02-14T09:36:33.481Z,11.45
2023-02-14T09:38:59.898Z,11.33
2023-02-14T09:41:29.390Z,12.45
2023-02-14T09:43:59.336Z,11.48
2023-02-14T09:46:27.565Z,11.82
2023-02-14T09:48:55.088Z,12.05
2023-02-14T09:51:25.770Z,10.60
2023-02-14T09:54:05.745Z,11.50
2023-02-14T09:56:51.655Z,10.57
2023-02-14T09:59:43.219Z,11.52
2023-02-14T10:02:34.885Z,10.82
2023-02-14T10:05:15.095Z,10.37
2023-02-14T10:08:15.836Z,12.15
2023-02-14T10:10:46.200Z,12.10
2023-02-14T10:13:36.505Z,12.00
2023-02-14T10:16:22.256Z,12.73
2023-02-14T10:19:03.883Z,12.60
2023-02-14T10:21:42.591Z,13.43
2023-02-14T10:24:20.440Z,11.73
2023-02-14T10:26:49.328Z,12.98
2023-02-14T10:29:18.434Z,13.40
2023-02-14T10:31:55.750Z,13.07
2023-02-14T10:34:50.953Z,12.90
2023-02-14T10:37:38.363Z,12.20
2023-02-14T10:40:23.640Z,12.95
2023-02-14T10:42:58.330Z,11.85
2023-02-14T10:46:03.539Z,12.33
2023-02-14T10:48:38.131Z,11.55
2023-02-14T10:51:32.727Z,12.15
2023-02-14T10:54:19.041Z,11.43
2023-02-14T10:57:03.606Z,11.32
2023-02-14T10:59:50.508Z,11.07
2023-02-14T11:02:20.364Z,11.68
2023-02-14T11:04:48.176Z,12.15
2023-02-14T11:07:21.220Z,11.10
2023-02-14T11:09:47.801Z,11.90
2023-02-14T11:12:32.485Z,11.73
2023-02-14T11:15:20.404Z,13.10
2023-02-14T11:17:47.115Z,10.80
2023-02-14T11:20:19.906Z,11.55
2023-02-14T11:22:46.679Z,12.20
2023-02-14T11:25:23.438Z,11.83
2023-02-14T11:27:55.727Z,11.27
2023-02-14T11:30:25.806Z,12.90
2023-02-14T11:32:55.125Z,11.57
2023-02-14T11:35:26.925Z,12.30
2023-02-14T11:37:56.316Z,11.37
2023-02-14T11:40:39.238Z,12.52
2023-02-14T11:43:14.320Z,14.23
2023-02-14T11:45:43.440Z,12.02
2023-02-14T11:48:37.371Z,15.48
2023-02-14T11:51:15.566Z,11.23
2023-02-14T11:53:46.304Z,13.90
2023-02-14T11:56:14.992Z,11.95
2023-02-14T11:58:47.706Z,11.75
2023-02-14T12:01:24.309Z,12.05
2023-02-14T12:03:52.569Z,14.50
2023-02-14T12:06:31.570Z,11.98
2023-02-14T12:09:11.194Z,12.95
2023-02-14T12:11:37.951Z,13.15
2023-02-14T12:14:05.769Z,14.13
2023-02-14T12:17:18.736Z,14.80
2023-02-14T12:20:11.850Z,13.20
2023-02-14T12:22:55.399Z,12.65
2023-02-14T12:25:27.210Z,12.60
2023-02-14T12:28:05.329Z,13.25
2023-02-14T12:30:34.984Z,13.47
2023-02-14T12:33:01.950Z,12.88
2023-02-14T12:35:53.522Z,13.52
2023-02-14T12:38:39.369Z,13.57
2023-02-14T12:41:22.538Z,14.55
2023-02-14T12:43:53.305Z,13.97
2023-02-14T12:47:08.229Z,13.35
2023-02-14T12:50:03.679Z,13.00
2023-02-14T12:53:03.322Z,13.95
2023-02-14T12:55:43.938Z,12.80
2023-02-14T12:58:33.434Z,17.60
2023-02-14T13:01:50.622Z,15.48
2023-02-14T13:04:53.375Z,13.60
2023-02-14T13:07:42.274Z,13.32
2023-02-14T13:10:22.461Z,13.27
2023-02-14T13:13:00.913Z,12.37
2023-02-14T13:16:02.703Z,13.05
2023-02-14T13:18:29.022Z,14.05
2023-02-14T13:21:04.780Z,14.07
2023-02-14T13:23:42.029Z,13.20
2023-02-14T13:26:25.369Z,12.90
2023-02-14T13:29:12.811Z,12.90
2023-02-14T13:31:40.541Z,12.52
2023-02-14T13:34:16.804Z,13.75
2023-02-14T13:36:44.202Z,16.83
2023-02-14T13:39:25.049Z,14.23
2023-02-14T13:41:51.593Z,13.38
2023-02-14T13:44:45.952Z,13.85
2023-02-14T13:47:26.299Z,12.80
2023-02-14T13:49:59.969Z,13.63
2023-02-14T13:52:40.037Z,13.70
2023-02-14T13:55:09.939Z,14.35
2023-02-14T13:57:38.629Z,13.73
2023-02-14T14:00:35.085Z,14.10
2023-02-14T14:03:01.893Z,13.60
2023-02-14T14:05:35.458Z,14.00
2023-02-14T14:08:20.130Z,14.07
2023-02-14T14:10:48.103Z,13.80
2023-02-14T14:13:42.306Z,13.40
2023-02-14T14:16:24.389Z,14.48
2023-02-14T14:18:56.847Z,14.17
2023-02-14T14:21:27.683Z,14.90
2023-02-14T14:24:12.220Z,12.70
2023-02-14T14:26:47.750Z,13.57
2023-02-14T14:29:43.470Z,13.57
2023-02-14T14:32:18.083Z,13.20
2023-02-14T14:34:56.551Z,13.10
2023-02-14T14:37:26.162Z,12.93
2023-02-14T14:39:55.190Z,12.80
2023-02-14T14:42:25.228Z,12.55
2023-02-14T14:44:57.322Z,14.57
2023-02-14T14:47:27.213Z,13.68
2023-02-14T14:49:58.872Z,12.85
2023-02-14T14:52:41.193Z,13.30
2023-02-14T14:55:14.848Z,12.93
2023-02-14T14:57:49.409Z,13.20
2023-02-14T15:00:27.208Z,13.95
2023-02-14T15:03:14.920Z,12.95
2023-02-14T15:05:44.626Z,12.98
2023-02-14T15:08:22.126Z,13.30
2023-02-14T15:10:54.254Z,13.70
2023-02-14T15:13:49.216Z,12.77
2023-02-14T15:16:38.323Z,13.70
2023-02-14T15:19:12.444Z,13.73
2023-02-14T15:21:44.226Z,14.15
2023-02-14T15:24:14.560Z,16.80
2023-02-14T15:26:43.768Z,14.55
2023-02-14T15:29:28.836Z,17.10
2023-02-14T15:31:58.133Z,16.00
2023-02-14T15:34:32.389Z,12.38
2023-02-14T15:37:03.858Z,13.03
2023-02-14T15:39:36.826Z,13.02
2023-02-14T15:42:05.865Z,13.68
2023-02-14T15:44:32.750Z,14.07
2023-02-14T15:47:03.509Z,14.25
2023-02-14T15:49:40.824Z,15.17
2023-02-14T15:52:07.821Z,13.90
2023-02-14T15:54:41.615Z,14.18
2023-02-14T15:57:21.349Z,11.95
2023-02-14T15:59:48.786Z,14.15
2023-02-14T16:02:37.806Z,14.37
2023-02-14T16:05:22.073Z,14.88
2023-02-14T16:08:26.439Z,13.93
2023-02-14T16:11:14.451Z,13.43
2023-02-14T16:13:43.858Z,14.00
2023-02-14T16:16:12.292Z,13.90
2023-02-14T16:18:44.014Z,14.38
2023-02-14T16:21:24.081Z,14.23
2023-02-14T16:24:05.485Z,14.65
2023-02-14T16:26:33.090Z,14.43
2023-02-14T16:29:02.650Z,13.80
2023-02-14T16:31:29.531Z,16.05
2023-02-14T16:33:56.015Z,14.07
2023-02-14T16:36:28.910Z,16.00
2023-02-14T16:38:56.247Z,17.83
2023-02-14T16:41:27.885Z,17.13
2023-02-14T16:43:55.180Z,15.70
2023-02-14T16:46:32.515Z,15.23
2023-02-14T16:48:59.157Z,14.35
2023-02-14T16:51:32.269Z,15.07
2023-02-14T16:54:02.606Z,15.13
2023-02-14T16:56:31.587Z,17.48
2023-02-14T16:58:58.316Z,14.98
2023-02-14T17:01:25.621Z,17.83
2023-02-14T17:03:51.986Z,15.05
2023-02-14T17:06:22.904Z,13.97
2023-02-14T17:08:52.118Z,15.95
2023-02-14T17:11:19.357Z,15.02
2023-02-14T17:13:47.522Z,15.80
2023-02-14T17:16:16.399Z,14.60
2023-02-14T17:18:48.677Z,13.60
2023-02-14T17:21:19.306Z,13.90
2023-02-14T17:23:45.675Z,13.30
2023-02-14T17:26:12.032Z,13.68
2023-02-14T17:28:38.395Z,12.75
2023-02-14T17:31:05.105Z,13.10
2023-02-14T17:33:32.914Z,14.43
2023-02-14T17:36:07.122Z,15.30
2023-02-14T17:38:34.822Z,15.40
2023-02-14T17:41:29.255Z,14.65
2023-02-14T17:44:00.146Z,12.90
2023-02-14T17:46:28.899Z,13.10
2023-02-14T17:48:55.791Z,13.25
2023-02-14T17:51:22.202Z,13.73
2023-02-14T17:53:49.783Z,13.52
2023-02-14T17:56:20.471Z,14.83
2023-02-14T17:58:48.441Z,14.25
2023-02-14T18:01:17.788Z,13.25
2023-02-14T18:03:44.659Z,13.35
2023-02-14T18:06:11.926Z,14.30
2023-02-14T18:08:49.224Z,12.57
2023-02-14T18:11:18.122Z,14.68
2023-02-14T18:13:44.528Z,13.70
2023-02-14T18:16:14.542Z,14.65
2023-02-14T18:18:41.344Z,14.05
2023-02-14T18:21:10.515Z,13.77
2023-02-14T18:23:37.421Z,13.10
2023-02-14T18:26:06.927Z,13.85
2023-02-14T18:28:34.576Z,13.38
2023-02-14T18:31:10.079Z,13.48
2023-02-14T18:33:36.759Z,13.67
2023-02-14T18:36:07.068Z,13.25
2023-02-14T18:38:34.584Z,14.00
2023-02-14T18:41:10.046Z,13.45
2023-02-14T18:43:37.074Z,14.18
2023-02-14T18:46:08.184Z,13.27
2023-02-14T18:48:35.295Z,13.85
2023-02-14T18:51:10.005Z,13.15
2023-02-14T18:53:39.981Z,14.43
2023-02-14T18:56:08.860Z,13.45
2023-02-14T18:58:35.801Z,13.57
2023-02-14T19:01:23.963Z,14.13
2023-02-14T19:03:52.739Z,14.18
2023-02-14T19:06:19.432Z,13.45
2023-02-14T19:08:46.295Z,14.43
2023-02-14T19:11:14.998Z,14.83
2023-02-14T19:13:45.931Z,13.13
2023-02-14T19:16:15.495Z,14.90
2023-02-14T19:18:41.955Z,15.10
2023-02-14T19:21:16.558Z,15.20
2023-02-14T19:23:43.542Z,15.07
2023-02-14T19:26:22.064Z,14.27
2023-02-14T19:28:50.450Z,14.93
2023-02-14T19:31:17.082Z,14.27
2023-02-14T19:33:45.523Z,14.23
2023-02-14T19:36:13.970Z,13.37
2023-02-14T19:38:42.565Z,13.95
2023-02-14T19:41:31.034Z,12.95
2023-02-14T19:43:59.024Z,13.93
2023-02-14T19:46:27.638Z,13.32
2023-02-14T19:48:56.061Z,13.77
2023-02-14T19:51:25.729Z,14.27
2023-02-14T19:53:52.703Z,14.32
2023-02-14T19:56:22.185Z,13.77
2023-02-14T19:58:50.150Z,13.10
2023-02-14T20:01:27.164Z,13.03
2023-02-14T20:03:53.629Z,12.80
2023-02-14T20:06:21.577Z,12.63
2023-02-14T20:08:48.255Z,13.43
2023-02-14T20:11:26.417Z,13.15
2023-02-14T20:13:55.004Z,12.60
2023-02-14T20:16:23.018Z,13.32
2023-02-14T20:18:49.443Z,12.65
2023-02-14T20:21:24.398Z,15.02
2023-02-14T20:24:18.480Z,13.82
2023-02-14T20:26:45.620Z,13.43
2023-02-14T20:29:12.051Z,13.77
2023-02-14T20:31:42.461Z,14.07
2023-02-14T20:34:09.359Z,13.48
2023-02-14T20:36:35.857Z,13.25
2023-02-14T20:39:05.464Z,14.27
2023-02-14T20:41:34.445Z,13.98
2023-02-14T20:44:09.996Z,13.30
2023-02-14T20:46:36.524Z,13.52
2023-02-14T20:49:03.810Z,13.15
2023-02-14T20:51:30.171Z,14.23
2023-02-14T20:53:56.788Z,13.52
2023-02-14T20:56:26.150Z,14.38
2023-02-14T20:58:52.545Z,15.43
2023-02-14T21:01:21.094Z,14.38
2023-02-14T21:03:50.797Z,14.07
2023-02-14T21:06:19.283Z,13.98
2023-02-14T21:08:46.635Z,13.85
2023-02-14T21:11:15.871Z,13.85
2023-02-14T21:13:42.284Z,13.70
2023-02-14T21:16:15.376Z,11.93
2023-02-14T21:18:44.323Z,12.80
2023-02-14T21:21:18.656Z,13.77
2023-02-14T21:23:45.061Z,12.40
2023-02-14T21:26:11.427Z,12.65
2023-02-14T21:28:37.773Z,12.40
2023-02-14T21:31:05.309Z,12.75
2023-02-14T21:33:32.821Z,11.57
2023-02-14T21:36:07.615Z,10.77
2023-02-14T21:38:34.635Z,11.90
2023-02-14T21:41:04.823Z,11.30
2023-02-14T21:43:34.591Z,10.63
2023-02-14T21:46:10.342Z,10.40
2023-02-14T21:48:55.328Z,11.57
2023-02-14T21:51:22.152Z,11.18
2023-02-14T21:53:49.231Z,9.97
2023-02-14T21:56:19.612Z,9.60
2023-02-14T21:58:52.348Z,10.95
2023-02-14T22:01:20.282Z,11.70
2023-02-14T22:03:47.233Z,8.88
2023-02-14T22:06:13.887Z,10.53
2023-02-14T22:08:40.814Z,10.45
2023-02-14T22:11:11.150Z,10.38
2023-02-14T22:13:37.625Z,10.45
2023-02-14T22:16:07.095Z,13.55
2023-02-14T22:18:33.696Z,10.57
2023-02-14T22:21:01.826Z,10.13
2023-02-14T22:23:35.554Z,9.95
2023-02-14T22:26:11.026Z,10.43
2023-02-14T22:28:37.377Z,10.32
2023-02-14T22:31:04.350Z,10.40
2023-02-14T22:33:31.138Z,11.65
2023-02-14T22:36:00.571Z,10.50
2023-02-14T22:38:27.779Z,12.90
2023-02-14T22:40:54.588Z,15.75
2023-02-14T22:43:21.982Z,13.63
2023-02-14T22:45:49.139Z,11.45
2023-02-14T22:48:17.686Z,9.77
2023-02-14T22:50:44.242Z,14.60
2023-02-14T22:53:10.663Z,11.57
2023-02-14T22:55:37.071Z,10.80
2023-02-14T22:58:03.468Z,10.73
2023-02-14T23:00:29.816Z,11.27
2023-02-14T23:02:56.384Z,15.77
2023-02-14T23:05:23.816Z,10.90
2023-02-14T23:07:50.196Z,10.03
2023-02-14T23:10:16.596Z,13.68
2023-02-14T23:13:01.630Z,10.95
2023-02-14T23:15:46.455Z,11.00
2023-02-14T23:18:31.682Z,13.30
2023-02-14T23:21:16.550Z,12.80
2023-02-14T23:23:42.916Z,10.93
2023-02-14T23:26:09.279Z,12.77
2023-02-14T23:28:35.702Z,12.00
2023-02-14T23:31:02.457Z,12.20
2023-02-14T23:33:28.844Z,13.00
2023-02-14T23:35:55.222Z,12.80
2023-02-14T23:38:21.598Z,12.50
2023-02-14T23:41:06.502Z,12.48
2023-02-14T23:43:32.879Z,16.70
2023-02-14T23:46:00.179Z,12.67
2023-02-14T23:48:26.818Z,13.80
2023-02-14T23:50:53.178Z,12.27
2023-02-14T23:53:19.573Z,10.68
2023-02-14T23:55:45.924Z,13.65
2023-02-14T23:58:12.284Z,11.37
